Terminal Aerodrome Forecast
Issued by NWS Atlanta, GA

Home | Current Version | Previous Version | Text Only | Print | Product List | Glossary On
Versions: 1 2 3 4 5 6 7 8 9 10 11 12 13 14
000
FTUS42 KFFC 202300
TAFMCN
TAF
KMCN 202322Z 2100/2124 23003KT P6SM FEW060
     FM210600 27002KT P6SM FEW120
     FM211500 31005KT P6SM FEW150
     FM211800 32010G16KT P6SM FEW250=

USA.gov is the U.S. government's official web portal to all federal, state and local government web resources and services.